sensor_id;sensor_type;location;lat;lon;timestamp;P1;durP1;ratioP1;P2;durP2;ratioP2
47365;SDS011;33105;47.964;7.982;2022-10-26T00:01:08;7.22;;;1.20;;
47365;SDS011;33105;47.964;7.982;2022-10-26T00:04:11;3.00;;;1.00;;
47365;SDS011;33105;47.964;7.982;2022-10-26T00:07:21;5.22;;;1.00;;
47365;SDS011;33105;47.964;7.982;2022-10-26T00:10:23;4.47;;;1.20;;
47365;SDS011;33105;47.964;7.982;2022-10-26T00:13:29;5.65;;;1.02;;
47365;SDS011;33105;47.964;7.982;2022-10-26T00:16:40;4.78;;;1.17;;
47365;SDS011;33105;47.964;7.982;2022-10-26T00:20:08;3.65;;;1.33;;
47365;SDS011;33105;47.964;7.982;2022-10-26T00:23:10;2.92;;;1.25;;
47365;SDS011;33105;47.964;7.982;2022-10-26T00:26:12;1.80;;;1.00;;
47365;SDS011;33105;47.964;7.982;2022-10-26T00:29:17;6.53;;;1.52;;
47365;SDS011;33105;47.964;7.982;2022-10-26T00:32:19;8.88;;;1.17;;
47365;SDS011;33105;47.964;7.982;2022-10-26T00:35:20;3.55;;;1.05;;
47365;SDS011;33105;47.964;7.982;2022-10-26T00:38:22;5.35;;;1.20;;
47365;SDS011;33105;47.964;7.982;2022-10-26T00:41:47;5.68;;;1.27;;
47365;SDS011;33105;47.964;7.982;2022-10-26T00:48:35;5.95;;;0.90;;
47365;SDS011;33105;47.964;7.982;2022-10-26T00:51:47;9.68;;;1.80;;
47365;SDS011;33105;47.964;7.982;2022-10-26T00:54:54;5.28;;;1.02;;
47365;SDS011;33105;47.964;7.982;2022-10-26T00:58:01;4.13;;;1.20;;
47365;SDS011;33105;47.964;7.982;2022-10-26T01:01:12;2.90;;;1.00;;
47365;SDS011;33105;47.964;7.982;2022-10-26T01:04:28;7.75;;;1.05;;
47365;SDS011;33105;47.964;7.982;2022-10-26T01:07:32;4.47;;;1.52;;
47365;SDS011;33105;47.964;7.982;2022-10-26T01:10:35;8.50;;;1.23;;
47365;SDS011;33105;47.964;7.982;2022-10-26T01:13:48;1.85;;;1.27;;
47365;SDS011;33105;47.964;7.982;2022-10-26T01:16:56;8.45;;;1.33;;
47365;SDS011;33105;47.964;7.982;2022-10-26T01:30:39;3.60;;;1.30;;
47365;SDS011;33105;47.964;7.982;2022-10-26T01:33:51;5.30;;;1.27;;
47365;SDS011;33105;47.964;7.982;2022-10-26T01:37:11;5.03;;;1.25;;
47365;SDS011;33105;47.964;7.982;2022-10-26T01:40:28;3.60;;;1.30;;
47365;SDS011;33105;47.964;7.982;2022-10-26T01:43:44;2.70;;;1.17;;
47365;SDS011;33105;47.964;7.982;2022-10-26T01:46:55;4.53;;;1.17;;
47365;SDS011;33105;47.964;7.982;2022-10-26T01:49:59;7.05;;;1.20;;
47365;SDS011;33105;47.964;7.982;2022-10-26T01:53:03;5.18;;;1.08;;
47365;SDS011;33105;47.964;7.982;2022-10-26T01:56:08;5.28;;;1.33;;
47365;SDS011;33105;47.964;7.982;2022-10-26T02:09:10;3.97;;;1.40;;
47365;SDS011;33105;47.964;7.982;2022-10-26T02:15:53;3.90;;;1.25;;
47365;SDS011;33105;47.964;7.982;2022-10-26T02:23:31;6.53;;;1.10;;
47365;SDS011;33105;47.964;7.982;2022-10-26T02:26:42;4.32;;;1.38;;
47365;SDS011;33105;47.964;7.982;2022-10-26T02:29:48;5.38;;;1.30;;
47365;SDS011;33105;47.964;7.982;2022-10-26T02:32:54;6.65;;;1.50;;
47365;SDS011;33105;47.964;7.982;2022-10-26T02:35:59;6.40;;;1.35;;
47365;SDS011;33105;47.964;7.982;2022-10-26T02:39:03;8.27;;;1.30;;
47365;SDS011;33105;47.964;7.982;2022-10-26T02:42:09;5.57;;;1.50;;
47365;SDS011;33105;47.964;7.982;2022-10-26T02:45:15;2.60;;;1.35;;
47365;SDS011;33105;47.964;7.982;2022-10-26T02:48:19;12.25;;;1.65;;
47365;SDS011;33105;47.964;7.982;2022-10-26T02:58:04;8.75;;;1.77;;
47365;SDS011;33105;47.964;7.982;2022-10-26T03:01:37;7.65;;;1.58;;
47365;SDS011;33105;47.964;7.982;2022-10-26T03:04:40;8.90;;;1.65;;
47365;SDS011;33105;47.964;7.982;2022-10-26T03:07:42;9.55;;;1.67;;
47365;SDS011;33105;47.964;7.982;2022-10-26T03:10:44;6.53;;;1.67;;
47365;SDS011;33105;47.964;7.982;2022-10-26T03:13:46;4.55;;;1.35;;
47365;SDS011;33105;47.964;7.982;2022-10-26T03:16:47;11.93;;;1.35;;
47365;SDS011;33105;47.964;7.982;2022-10-26T03:19:49;11.10;;;2.10;;
47365;SDS011;33105;47.964;7.982;2022-10-26T03:22:50;7.30;;;1.52;;
47365;SDS011;33105;47.964;7.982;2022-10-26T03:25:55;3.72;;;1.50;;
47365;SDS011;33105;47.964;7.982;2022-10-26T03:28:58;6.85;;;2.00;;
47365;SDS011;33105;47.964;7.982;2022-10-26T03:31:59;9.55;;;1.55;;
47365;SDS011;33105;47.964;7.982;2022-10-26T03:35:00;9.77;;;1.83;;
47365;SDS011;33105;47.964;7.982;2022-10-26T03:38:02;8.07;;;1.60;;
47365;SDS011;33105;47.964;7.982;2022-10-26T03:41:03;12.68;;;1.80;;
47365;SDS011;33105;47.964;7.982;2022-10-26T03:44:04;8.93;;;1.30;;
47365;SDS011;33105;47.964;7.982;2022-10-26T03:47:06;7.00;;;1.58;;
47365;SDS011;33105;47.964;7.982;2022-10-26T03:50:08;8.85;;;1.77;;
47365;SDS011;33105;47.964;7.982;2022-10-26T03:53:11;8.52;;;1.83;;
47365;SDS011;33105;47.964;7.982;2022-10-26T03:56:12;12.57;;;1.85;;
47365;SDS011;33105;47.964;7.982;2022-10-26T03:59:14;10.27;;;2.20;;
47365;SDS011;33105;47.964;7.982;2022-10-26T04:02:22;7.60;;;1.95;;
47365;SDS011;33105;47.964;7.982;2022-10-26T04:05:24;10.93;;;1.83;;
47365;SDS011;33105;47.964;7.982;2022-10-26T04:08:27;10.50;;;1.70;;
47365;SDS011;33105;47.964;7.982;2022-10-26T04:11:28;11.98;;;1.77;;
47365;SDS011;33105;47.964;7.982;2022-10-26T04:14:30;10.00;;;2.00;;
47365;SDS011;33105;47.964;7.982;2022-10-26T04:17:44;10.23;;;1.80;;
47365;SDS011;33105;47.964;7.982;2022-10-26T04:20:51;9.30;;;2.05;;
47365;SDS011;33105;47.964;7.982;2022-10-26T04:23:52;12.20;;;1.77;;
47365;SDS011;33105;47.964;7.982;2022-10-26T04:26:54;9.48;;;1.95;;
47365;SDS011;33105;47.964;7.982;2022-10-26T04:29:55;6.53;;;1.70;;
47365;SDS011;33105;47.964;7.982;2022-10-26T04:32:56;3.80;;;1.33;;
47365;SDS011;33105;47.964;7.982;2022-10-26T04:36:01;11.40;;;2.15;;
47365;SDS011;33105;47.964;7.982;2022-10-26T04:39:12;11.18;;;2.22;;
47365;SDS011;33105;47.964;7.982;2022-10-26T04:42:13;10.13;;;2.28;;
47365;SDS011;33105;47.964;7.982;2022-10-26T04:45:47;13.07;;;2.20;;
47365;SDS011;33105;47.964;7.982;2022-10-26T04:48:51;5.38;;;2.33;;
47365;SDS011;33105;47.964;7.982;2022-10-26T04:51:53;5.95;;;1.70;;
47365;SDS011;33105;47.964;7.982;2022-10-26T04:54:54;7.22;;;2.25;;
47365;SDS011;33105;47.964;7.982;2022-10-26T04:57:55;5.60;;;1.88;;
47365;SDS011;33105;47.964;7.982;2022-10-26T05:00:57;11.30;;;2.35;;
47365;SDS011;33105;47.964;7.982;2022-10-26T05:03:58;13.00;;;2.22;;
47365;SDS011;33105;47.964;7.982;2022-10-26T05:07:02;12.13;;;2.50;;
47365;SDS011;33105;47.964;7.982;2022-10-26T05:10:04;11.63;;;2.08;;
47365;SDS011;33105;47.964;7.982;2022-10-26T05:13:15;8.45;;;2.05;;
47365;SDS011;33105;47.964;7.982;2022-10-26T05:16:16;9.40;;;2.45;;
47365;SDS011;33105;47.964;7.982;2022-10-26T05:19:18;11.82;;;2.25;;
47365;SDS011;33105;47.964;7.982;2022-10-26T05:22:19;10.85;;;2.40;;
47365;SDS011;33105;47.964;7.982;2022-10-26T05:25:21;10.23;;;2.30;;
47365;SDS011;33105;47.964;7.982;2022-10-26T05:28:23;10.18;;;2.33;;
47365;SDS011;33105;47.964;7.982;2022-10-26T05:31:36;6.00;;;2.33;;
47365;SDS011;33105;47.964;7.982;2022-10-26T05:34:38;5.45;;;2.80;;
47365;SDS011;33105;47.964;7.982;2022-10-26T05:37:39;9.65;;;3.08;;
47365;SDS011;33105;47.964;7.982;2022-10-26T05:41:14;16.48;;;2.53;;
47365;SDS011;33105;47.964;7.982;2022-10-26T05:44:09;10.82;;;2.10;;
47365;SDS011;33105;47.964;7.982;2022-10-26T05:47:10;14.73;;;2.78;;
47365;SDS011;33105;47.964;7.982;2022-10-26T05:50:12;11.65;;;2.55;;
47365;SDS011;33105;47.964;7.982;2022-10-26T05:53:14;14.77;;;2.97;;
47365;SDS011;33105;47.964;7.982;2022-10-26T05:56:17;12.75;;;2.38;;
47365;SDS011;33105;47.964;7.982;2022-10-26T05:59:21;9.10;;;3.13;;
47365;SDS011;33105;47.964;7.982;2022-10-26T06:05:53;15.98;;;2.70;;
47365;SDS011;33105;47.964;7.982;2022-10-26T06:08:56;13.38;;;3.28;;
47365;SDS011;33105;47.964;7.982;2022-10-26T06:12:01;14.65;;;3.05;;
47365;SDS011;33105;47.964;7.982;2022-10-26T06:15:03;13.75;;;2.92;;
47365;SDS011;33105;47.964;7.982;2022-10-26T06:18:43;10.50;;;2.72;;
47365;SDS011;33105;47.964;7.982;2022-10-26T06:22:07;11.38;;;2.60;;
47365;SDS011;33105;47.964;7.982;2022-10-26T06:32:01;16.50;;;3.42;;
47365;SDS011;33105;47.964;7.982;2022-10-26T06:38:24;13.85;;;3.17;;
47365;SDS011;33105;47.964;7.982;2022-10-26T06:41:29;13.45;;;3.35;;
47365;SDS011;33105;47.964;7.982;2022-10-26T06:44:35;15.95;;;3.00;;
47365;SDS011;33105;47.964;7.982;2022-10-26T06:51:03;9.85;;;3.30;;
47365;SDS011;33105;47.964;7.982;2022-10-26T06:54:11;13.70;;;3.47;;
47365;SDS011;33105;47.964;7.982;2022-10-26T06:57:14;14.70;;;3.22;;
47365;SDS011;33105;47.964;7.982;2022-10-26T07:03:23;10.27;;;3.15;;
47365;SDS011;33105;47.964;7.982;2022-10-26T07:06:33;8.60;;;2.65;;
47365;SDS011;33105;47.964;7.982;2022-10-26T07:09:34;14.48;;;3.17;;
47365;SDS011;33105;47.964;7.982;2022-10-26T07:12:45;9.23;;;3.00;;
47365;SDS011;33105;47.964;7.982;2022-10-26T07:15:47;16.52;;;4.05;;
47365;SDS011;33105;47.964;7.982;2022-10-26T07:18:48;16.63;;;3.13;;
47365;SDS011;33105;47.964;7.982;2022-10-26T07:22:03;12.65;;;3.15;;
47365;SDS011;33105;47.964;7.982;2022-10-26T07:25:08;12.52;;;3.30;;
47365;SDS011;33105;47.964;7.982;2022-10-26T07:35:14;11.73;;;2.60;;
47365;SDS011;33105;47.964;7.982;2022-10-26T07:38:27;9.25;;;2.70;;
47365;SDS011;33105;47.964;7.982;2022-10-26T07:41:29;8.52;;;2.88;;
47365;SDS011;33105;47.964;7.982;2022-10-26T07:49:23;7.63;;;2.55;;
47365;SDS011;33105;47.964;7.982;2022-10-26T07:52:33;7.72;;;2.38;;
47365;SDS011;33105;47.964;7.982;2022-10-26T07:55:56;10.15;;;2.45;;
47365;SDS011;33105;47.964;7.982;2022-10-26T07:58:58;10.60;;;2.80;;
47365;SDS011;33105;47.964;7.982;2022-10-26T08:02:00;12.18;;;2.40;;
47365;SDS011;33105;47.964;7.982;2022-10-26T08:05:01;9.27;;;2.53;;
47365;SDS011;33105;47.964;7.982;2022-10-26T08:08:03;9.57;;;2.90;;
47365;SDS011;33105;47.964;7.982;2022-10-26T08:11:05;10.70;;;2.78;;
47365;SDS011;33105;47.964;7.982;2022-10-26T08:14:06;12.85;;;2.80;;
47365;SDS011;33105;47.964;7.982;2022-10-26T08:17:08;10.43;;;2.38;;
47365;SDS011;33105;47.964;7.982;2022-10-26T08:20:09;12.13;;;2.90;;
47365;SDS011;33105;47.964;7.982;2022-10-26T08:23:11;13.27;;;2.70;;
47365;SDS011;33105;47.964;7.982;2022-10-26T08:26:12;12.93;;;2.40;;
47365;SDS011;33105;47.964;7.982;2022-10-26T08:29:14;10.32;;;3.15;;
47365;SDS011;33105;47.964;7.982;2022-10-26T08:32:15;15.15;;;3.40;;
47365;SDS011;33105;47.964;7.982;2022-10-26T08:35:16;14.52;;;2.60;;
47365;SDS011;33105;47.964;7.982;2022-10-26T08:38:20;10.80;;;2.90;;
47365;SDS011;33105;47.964;7.982;2022-10-26T08:41:29;8.52;;;2.75;;
47365;SDS011;33105;47.964;7.982;2022-10-26T08:44:59;16.67;;;3.17;;
47365;SDS011;33105;47.964;7.982;2022-10-26T08:48:21;17.00;;;2.88;;
47365;SDS011;33105;47.964;7.982;2022-10-26T08:51:31;15.38;;;2.72;;
47365;SDS011;33105;47.964;7.982;2022-10-26T08:54:41;13.68;;;2.63;;
47365;SDS011;33105;47.964;7.982;2022-10-26T08:57:48;19.52;;;3.40;;
47365;SDS011;33105;47.964;7.982;2022-10-26T09:00:56;10.98;;;2.70;;
47365;SDS011;33105;47.964;7.982;2022-10-26T09:03:59;17.83;;;3.10;;
47365;SDS011;33105;47.964;7.982;2022-10-26T09:17:52;18.13;;;3.28;;
47365;SDS011;33105;47.964;7.982;2022-10-26T09:21:12;13.23;;;2.80;;
47365;SDS011;33105;47.964;7.982;2022-10-26T09:25:05;15.25;;;3.40;;
47365;SDS011;33105;47.964;7.982;2022-10-26T09:28:03;11.68;;;2.97;;
47365;SDS011;33105;47.964;7.982;2022-10-26T09:31:05;13.95;;;2.95;;
47365;SDS011;33105;47.964;7.982;2022-10-26T09:34:36;14.75;;;3.30;;
47365;SDS011;33105;47.964;7.982;2022-10-26T09:38:08;19.38;;;3.20;;
47365;SDS011;33105;47.964;7.982;2022-10-26T09:44:25;11.20;;;2.80;;
47365;SDS011;33105;47.964;7.982;2022-10-26T09:47:34;14.05;;;2.45;;
47365;SDS011;33105;47.964;7.982;2022-10-26T09:50:39;9.30;;;2.53;;
47365;SDS011;33105;47.964;7.982;2022-10-26T09:53:46;7.90;;;2.03;;
47365;SDS011;33105;47.964;7.982;2022-10-26T09:56:53;10.23;;;2.63;;
47365;SDS011;33105;47.964;7.982;2022-10-26T09:59:58;15.18;;;2.55;;
47365;SDS011;33105;47.964;7.982;2022-10-26T10:02:59;12.70;;;2.40;;
47365;SDS011;33105;47.964;7.982;2022-10-26T10:06:22;13.32;;;2.60;;
47365;SDS011;33105;47.964;7.982;2022-10-26T10:09:22;15.15;;;2.63;;
47365;SDS011;33105;47.964;7.982;2022-10-26T10:12:24;10.30;;;2.45;;
47365;SDS011;33105;47.964;7.982;2022-10-26T10:15:25;18.02;;;2.80;;
47365;SDS011;33105;47.964;7.982;2022-10-26T10:18:26;13.43;;;2.35;;
47365;SDS011;33105;47.964;7.982;2022-10-26T10:21:36;10.95;;;2.10;;
47365;SDS011;33105;47.964;7.982;2022-10-26T10:24:41;9.32;;;2.65;;
47365;SDS011;33105;47.964;7.982;2022-10-26T10:27:52;8.15;;;2.45;;
47365;SDS011;33105;47.964;7.982;2022-10-26T10:30:55;14.80;;;2.30;;
47365;SDS011;33105;47.964;7.982;2022-10-26T10:34:03;10.48;;;2.50;;
47365;SDS011;33105;47.964;7.982;2022-10-26T10:37:25;21.50;;;3.22;;
47365;SDS011;33105;47.964;7.982;2022-10-26T10:40:41;12.48;;;2.78;;
47365;SDS011;33105;47.964;7.982;2022-10-26T10:47:04;17.02;;;2.80;;
47365;SDS011;33105;47.964;7.982;2022-10-26T10:50:17;14.63;;;2.80;;
47365;SDS011;33105;47.964;7.982;2022-10-26T10:53:21;15.52;;;2.55;;
47365;SDS011;33105;47.964;7.982;2022-10-26T10:56:32;13.93;;;2.42;;
47365;SDS011;33105;47.964;7.982;2022-10-26T11:06:00;16.73;;;3.47;;
47365;SDS011;33105;47.964;7.982;2022-10-26T11:09:06;11.65;;;3.28;;
47365;SDS011;33105;47.964;7.982;2022-10-26T11:12:22;19.45;;;3.60;;
47365;SDS011;33105;47.964;7.982;2022-10-26T11:15:29;23.73;;;3.33;;
47365;SDS011;33105;47.964;7.982;2022-10-26T11:18:44;19.02;;;2.97;;
47365;SDS011;33105;47.964;7.982;2022-10-26T11:21:55;17.05;;;2.90;;
47365;SDS011;33105;47.964;7.982;2022-10-26T11:25:00;17.80;;;3.00;;
47365;SDS011;33105;47.964;7.982;2022-10-26T11:28:05;20.25;;;3.92;;
47365;SDS011;33105;47.964;7.982;2022-10-26T11:31:19;15.10;;;3.10;;
47365;SDS011;33105;47.964;7.982;2022-10-26T11:37:32;17.17;;;3.50;;
47365;SDS011;33105;47.964;7.982;2022-10-26T11:40:53;18.10;;;3.10;;
47365;SDS011;33105;47.964;7.982;2022-10-26T11:44:24;14.77;;;2.58;;
47365;SDS011;33105;47.964;7.982;2022-10-26T11:51:02;16.45;;;3.10;;
47365;SDS011;33105;47.964;7.982;2022-10-26T11:54:08;14.80;;;3.15;;
47365;SDS011;33105;47.964;7.982;2022-10-26T11:57:13;14.23;;;2.93;;
47365;SDS011;33105;47.964;7.982;2022-10-26T12:00:17;12.05;;;3.17;;
47365;SDS011;33105;47.964;7.982;2022-10-26T12:03:22;17.15;;;3.28;;
47365;SDS011;33105;47.964;7.982;2022-10-26T12:06:29;19.60;;;3.28;;
47365;SDS011;33105;47.964;7.982;2022-10-26T12:09:32;13.20;;;2.80;;
47365;SDS011;33105;47.964;7.982;2022-10-26T12:12:44;11.20;;;2.33;;
47365;SDS011;33105;47.964;7.982;2022-10-26T12:19:48;15.32;;;2.63;;
47365;SDS011;33105;47.964;7.982;2022-10-26T12:22:55;12.80;;;3.20;;
47365;SDS011;33105;47.964;7.982;2022-10-26T12:29:30;12.00;;;2.50;;
47365;SDS011;33105;47.964;7.982;2022-10-26T12:35:36;13.68;;;2.50;;
47365;SDS011;33105;47.964;7.982;2022-10-26T12:41:40;11.55;;;2.70;;
47365;SDS011;33105;47.964;7.982;2022-10-26T12:48:01;14.23;;;2.25;;
47365;SDS011;33105;47.964;7.982;2022-10-26T12:54:34;15.30;;;3.00;;
47365;SDS011;33105;47.964;7.982;2022-10-26T12:57:49;13.05;;;2.15;;
47365;SDS011;33105;47.964;7.982;2022-10-26T13:07:15;10.65;;;2.50;;
47365;SDS011;33105;47.964;7.982;2022-10-26T13:10:20;10.73;;;2.45;;
47365;SDS011;33105;47.964;7.982;2022-10-26T13:13:24;9.90;;;2.50;;
47365;SDS011;33105;47.964;7.982;2022-10-26T13:16:26;13.07;;;2.47;;
47365;SDS011;33105;47.964;7.982;2022-10-26T13:22:32;8.88;;;2.35;;
47365;SDS011;33105;47.964;7.982;2022-10-26T13:25:33;16.70;;;2.75;;
47365;SDS011;33105;47.964;7.982;2022-10-26T13:34:41;12.63;;;2.78;;
47365;SDS011;33105;47.964;7.982;2022-10-26T13:37:44;13.63;;;2.53;;
47365;SDS011;33105;47.964;7.982;2022-10-26T13:40:48;16.85;;;3.13;;
47365;SDS011;33105;47.964;7.982;2022-10-26T13:43:52;14.07;;;2.92;;
47365;SDS011;33105;47.964;7.982;2022-10-26T13:46:56;16.33;;;2.67;;
47365;SDS011;33105;47.964;7.982;2022-10-26T13:50:04;13.93;;;2.45;;
47365;SDS011;33105;47.964;7.982;2022-10-26T13:53:15;11.23;;;2.40;;
47365;SDS011;33105;47.964;7.982;2022-10-26T13:56:32;10.88;;;2.08;;
47365;SDS011;33105;47.964;7.982;2022-10-26T13:59:36;11.77;;;2.45;;
47365;SDS011;33105;47.964;7.982;2022-10-26T14:02:41;12.20;;;2.45;;
47365;SDS011;33105;47.964;7.982;2022-10-26T14:05:43;13.02;;;2.85;;
47365;SDS011;33105;47.964;7.982;2022-10-26T14:08:50;17.10;;;2.78;;
47365;SDS011;33105;47.964;7.982;2022-10-26T14:11:54;12.88;;;2.97;;
47365;SDS011;33105;47.964;7.982;2022-10-26T14:15:02;13.45;;;2.47;;
47365;SDS011;33105;47.964;7.982;2022-10-26T14:18:10;13.15;;;2.60;;
47365;SDS011;33105;47.964;7.982;2022-10-26T14:21:19;13.35;;;2.83;;
47365;SDS011;33105;47.964;7.982;2022-10-26T14:24:26;16.70;;;3.38;;
47365;SDS011;33105;47.964;7.982;2022-10-26T14:27:32;13.02;;;2.65;;
47365;SDS011;33105;47.964;7.982;2022-10-26T14:30:38;8.43;;;2.30;;
47365;SDS011;33105;47.964;7.982;2022-10-26T14:33:39;17.63;;;2.60;;
47365;SDS011;33105;47.964;7.982;2022-10-26T14:36:48;12.00;;;3.03;;
47365;SDS011;33105;47.964;7.982;2022-10-26T14:39:49;12.98;;;2.83;;
47365;SDS011;33105;47.964;7.982;2022-10-26T14:42:52;14.68;;;2.60;;
47365;SDS011;33105;47.964;7.982;2022-10-26T14:45:55;15.57;;;3.15;;
47365;SDS011;33105;47.964;7.982;2022-10-26T14:48:57;10.82;;;2.40;;
47365;SDS011;33105;47.964;7.982;2022-10-26T14:52:04;14.68;;;2.60;;
47365;SDS011;33105;47.964;7.982;2022-10-26T14:58:16;14.13;;;2.60;;
47365;SDS011;33105;47.964;7.982;2022-10-26T15:04:28;18.63;;;3.00;;
47365;SDS011;33105;47.964;7.982;2022-10-26T15:07:50;14.07;;;2.83;;
47365;SDS011;33105;47.964;7.982;2022-10-26T15:10:52;17.30;;;3.03;;
47365;SDS011;33105;47.964;7.982;2022-10-26T15:13:53;12.43;;;3.08;;
47365;SDS011;33105;47.964;7.982;2022-10-26T15:16:56;13.00;;;2.63;;
47365;SDS011;33105;47.964;7.982;2022-10-26T15:20:05;10.45;;;2.67;;
47365;SDS011;33105;47.964;7.982;2022-10-26T15:23:13;13.98;;;3.17;;
47365;SDS011;33105;47.964;7.982;2022-10-26T15:26:15;11.77;;;2.50;;
47365;SDS011;33105;47.964;7.982;2022-10-26T15:32:46;14.95;;;3.03;;
47365;SDS011;33105;47.964;7.982;2022-10-26T15:35:47;12.55;;;2.63;;
47365;SDS011;33105;47.964;7.982;2022-10-26T15:38:49;12.57;;;2.90;;
47365;SDS011;33105;47.964;7.982;2022-10-26T15:41:51;11.98;;;2.80;;
47365;SDS011;33105;47.964;7.982;2022-10-26T15:44:53;8.55;;;2.75;;
47365;SDS011;33105;47.964;7.982;2022-10-26T15:47:55;15.27;;;2.90;;
47365;SDS011;33105;47.964;7.982;2022-10-26T15:50:58;9.10;;;2.53;;
47365;SDS011;33105;47.964;7.982;2022-10-26T15:54:02;15.13;;;2.80;;
47365;SDS011;33105;47.964;7.982;2022-10-26T15:57:07;10.45;;;2.92;;
47365;SDS011;33105;47.964;7.982;2022-10-26T16:00:15;11.85;;;2.83;;
47365;SDS011;33105;47.964;7.982;2022-10-26T16:03:19;17.73;;;2.90;;
47365;SDS011;33105;47.964;7.982;2022-10-26T16:06:25;21.63;;;3.15;;
47365;SDS011;33105;47.964;7.982;2022-10-26T16:09:27;15.50;;;2.95;;
47365;SDS011;33105;47.964;7.982;2022-10-26T16:12:28;10.15;;;3.15;;
47365;SDS011;33105;47.964;7.982;2022-10-26T16:15:29;12.63;;;3.10;;
47365;SDS011;33105;47.964;7.982;2022-10-26T16:18:30;12.98;;;2.38;;
47365;SDS011;33105;47.964;7.982;2022-10-26T16:21:32;17.48;;;2.80;;
47365;SDS011;33105;47.964;7.982;2022-10-26T16:24:33;9.32;;;2.55;;
47365;SDS011;33105;47.964;7.982;2022-10-26T16:27:35;11.73;;;2.53;;
47365;SDS011;33105;47.964;7.982;2022-10-26T16:30:36;18.70;;;3.20;;
47365;SDS011;33105;47.964;7.982;2022-10-26T16:33:37;14.13;;;3.00;;
47365;SDS011;33105;47.964;7.982;2022-10-26T16:36:39;11.75;;;2.45;;
47365;SDS011;33105;47.964;7.982;2022-10-26T16:39:40;10.50;;;2.70;;
47365;SDS011;33105;47.964;7.982;2022-10-26T16:42:42;10.38;;;2.50;;
47365;SDS011;33105;47.964;7.982;2022-10-26T16:45:44;15.55;;;2.40;;
47365;SDS011;33105;47.964;7.982;2022-10-26T16:48:46;15.52;;;2.80;;
47365;SDS011;33105;47.964;7.982;2022-10-26T16:51:49;19.05;;;3.17;;
47365;SDS011;33105;47.964;7.982;2022-10-26T16:54:52;14.55;;;3.05;;
47365;SDS011;33105;47.964;7.982;2022-10-26T16:58:00;10.60;;;2.60;;
47365;SDS011;33105;47.964;7.982;2022-10-26T17:01:07;15.27;;;2.83;;
47365;SDS011;33105;47.964;7.982;2022-10-26T17:04:10;11.07;;;2.78;;
47365;SDS011;33105;47.964;7.982;2022-10-26T17:07:11;12.75;;;3.00;;
47365;SDS011;33105;47.964;7.982;2022-10-26T17:10:15;15.57;;;2.83;;
47365;SDS011;33105;47.964;7.982;2022-10-26T17:13:20;20.17;;;2.92;;
47365;SDS011;33105;47.964;7.982;2022-10-26T17:16:22;13.05;;;2.85;;
47365;SDS011;33105;47.964;7.982;2022-10-26T17:19:24;9.50;;;2.53;;
47365;SDS011;33105;47.964;7.982;2022-10-26T17:22:26;12.85;;;2.63;;
47365;SDS011;33105;47.964;7.982;2022-10-26T17:25:34;14.07;;;2.20;;
47365;SDS011;33105;47.964;7.982;2022-10-26T17:28:36;13.95;;;2.50;;
47365;SDS011;33105;47.964;7.982;2022-10-26T17:31:37;8.95;;;2.30;;
47365;SDS011;33105;47.964;7.982;2022-10-26T17:34:38;5.25;;;1.70;;
47365;SDS011;33105;47.964;7.982;2022-10-26T17:37:40;15.40;;;1.95;;
47365;SDS011;33105;47.964;7.982;2022-10-26T17:40:41;17.90;;;2.38;;
47365;SDS011;33105;47.964;7.982;2022-10-26T17:43:43;6.85;;;2.65;;
47365;SDS011;33105;47.964;7.982;2022-10-26T17:46:45;9.80;;;2.85;;
47365;SDS011;33105;47.964;7.982;2022-10-26T17:49:46;11.38;;;2.90;;
47365;SDS011;33105;47.964;7.982;2022-10-26T17:52:48;11.85;;;2.50;;
47365;SDS011;33105;47.964;7.982;2022-10-26T17:55:49;6.15;;;2.15;;
47365;SDS011;33105;47.964;7.982;2022-10-26T17:58:51;12.65;;;2.50;;
47365;SDS011;33105;47.964;7.982;2022-10-26T18:01:56;8.40;;;1.90;;
47365;SDS011;33105;47.964;7.982;2022-10-26T18:05:05;11.90;;;1.97;;
47365;SDS011;33105;47.964;7.982;2022-10-26T18:08:07;8.85;;;1.80;;
47365;SDS011;33105;47.964;7.982;2022-10-26T18:11:10;10.23;;;1.77;;
47365;SDS011;33105;47.964;7.982;2022-10-26T18:14:14;9.35;;;2.00;;
47365;SDS011;33105;47.964;7.982;2022-10-26T18:17:16;7.85;;;1.60;;
47365;SDS011;33105;47.964;7.982;2022-10-26T18:20:20;5.53;;;1.60;;
47365;SDS011;33105;47.964;7.982;2022-10-26T18:23:21;11.98;;;1.90;;
47365;SDS011;33105;47.964;7.982;2022-10-26T18:26:26;7.68;;;1.60;;
47365;SDS011;33105;47.964;7.982;2022-10-26T18:29:35;5.20;;;1.77;;
47365;SDS011;33105;47.964;7.982;2022-10-26T18:32:37;6.65;;;1.25;;
47365;SDS011;33105;47.964;7.982;2022-10-26T18:35:38;7.38;;;1.85;;
47365;SDS011;33105;47.964;7.982;2022-10-26T18:38:47;4.72;;;1.92;;
47365;SDS011;33105;47.964;7.982;2022-10-26T18:41:49;4.75;;;1.73;;
47365;SDS011;33105;47.964;7.982;2022-10-26T18:44:50;16.10;;;1.90;;
47365;SDS011;33105;47.964;7.982;2022-10-26T18:47:51;7.25;;;2.13;;
47365;SDS011;33105;47.964;7.982;2022-10-26T18:50:53;6.72;;;1.70;;
47365;SDS011;33105;47.964;7.982;2022-10-26T18:54:01;8.10;;;1.70;;
47365;SDS011;33105;47.964;7.982;2022-10-26T18:57:09;4.38;;;1.42;;
47365;SDS011;33105;47.964;7.982;2022-10-26T19:00:11;9.10;;;1.70;;
47365;SDS011;33105;47.964;7.982;2022-10-26T19:03:16;7.40;;;1.70;;
47365;SDS011;33105;47.964;7.982;2022-10-26T19:06:21;6.57;;;1.65;;
47365;SDS011;33105;47.964;7.982;2022-10-26T19:09:25;4.30;;;1.60;;
47365;SDS011;33105;47.964;7.982;2022-10-26T19:12:26;7.18;;;1.73;;
47365;SDS011;33105;47.964;7.982;2022-10-26T19:15:31;6.72;;;1.50;;
47365;SDS011;33105;47.964;7.982;2022-10-26T19:18:41;10.18;;;1.70;;
47365;SDS011;33105;47.964;7.982;2022-10-26T19:21:44;7.72;;;1.65;;
47365;SDS011;33105;47.964;7.982;2022-10-26T19:24:49;8.68;;;1.70;;
47365;SDS011;33105;47.964;7.982;2022-10-26T19:27:50;10.43;;;1.55;;
47365;SDS011;33105;47.964;7.982;2022-10-26T19:30:55;4.70;;;1.63;;
47365;SDS011;33105;47.964;7.982;2022-10-26T19:33:57;9.27;;;1.60;;
47365;SDS011;33105;47.964;7.982;2022-10-26T19:36:58;4.07;;;1.30;;
47365;SDS011;33105;47.964;7.982;2022-10-26T19:40:01;4.00;;;1.75;;
47365;SDS011;33105;47.964;7.982;2022-10-26T19:43:03;6.82;;;1.33;;
47365;SDS011;33105;47.964;7.982;2022-10-26T19:46:07;4.28;;;1.30;;
47365;SDS011;33105;47.964;7.982;2022-10-26T19:49:16;5.50;;;1.63;;
47365;SDS011;33105;47.964;7.982;2022-10-26T19:52:20;5.57;;;1.80;;
47365;SDS011;33105;47.964;7.982;2022-10-26T19:55:22;5.63;;;1.60;;
47365;SDS011;33105;47.964;7.982;2022-10-26T19:58:27;4.70;;;1.75;;
47365;SDS011;33105;47.964;7.982;2022-10-26T20:01:30;7.40;;;1.77;;
47365;SDS011;33105;47.964;7.982;2022-10-26T20:04:32;8.13;;;1.88;;
47365;SDS011;33105;47.964;7.982;2022-10-26T20:07:33;3.83;;;1.80;;
47365;SDS011;33105;47.964;7.982;2022-10-26T20:10:41;12.05;;;2.30;;
47365;SDS011;33105;47.964;7.982;2022-10-26T20:13:46;7.63;;;1.20;;
47365;SDS011;33105;47.964;7.982;2022-10-26T20:16:48;9.15;;;1.58;;
47365;SDS011;33105;47.964;7.982;2022-10-26T20:19:49;6.78;;;1.20;;
47365;SDS011;33105;47.964;7.982;2022-10-26T20:22:50;7.13;;;1.60;;
47365;SDS011;33105;47.964;7.982;2022-10-26T20:25:52;7.30;;;1.55;;
47365;SDS011;33105;47.964;7.982;2022-10-26T20:28:55;10.15;;;1.67;;
47365;SDS011;33105;47.964;7.982;2022-10-26T20:31:56;4.25;;;1.23;;
47365;SDS011;33105;47.964;7.982;2022-10-26T20:34:59;15.80;;;1.23;;
47365;SDS011;33105;47.964;7.982;2022-10-26T20:38:05;10.48;;;1.73;;
47365;SDS011;33105;47.964;7.982;2022-10-26T20:41:10;3.40;;;1.00;;
47365;SDS011;33105;47.964;7.982;2022-10-26T20:44:17;4.82;;;1.10;;
47365;SDS011;33105;47.964;7.982;2022-10-26T20:47:24;8.98;;;1.17;;
47365;SDS011;33105;47.964;7.982;2022-10-26T20:50:27;4.22;;;1.50;;
47365;SDS011;33105;47.964;7.982;2022-10-26T20:53:36;7.65;;;1.42;;
47365;SDS011;33105;47.964;7.982;2022-10-26T20:56:42;4.63;;;1.05;;